Time;durP1;ratioP1;P1;durP2;ratioP2;P2;SDS_P1;SDS_P2;PMS_P1;PMS_P2;Temp;Humidity;BMP_temperature;BMP_pressure;BME280_temperature;BME280_humidity;BME280_pressure;Samples;Min_cycle;Max_cycle;Signal;HPM_P1;HPM_P2
2023/12/19 00:00:09;;;;;;;;;31.50;27.75;;;;;4.97;84.40;102440.81;4974403;28;45436;-81
2023/12/19 00:02:34;;;;;;;;;24.25;24.25;;;;;5.05;86.54;102448.66;4974122;28;45330;-81
2023/12/19 00:05:00;;;;;;;;;16.75;12.75;;;;;5.06;84.38;102426.69;4979146;28;45444;-81
2023/12/19 00:07:27;;;;;;;;;37.50;26.50;;;;;5.01;85.06;102421.44;4974681;28;45365;-81
2023/12/19 00:09:52;;;;;;;;;30.00;27.50;;;;;4.97;84.88;102414.44;4973899;28;45303;-82
2023/12/19 00:12:18;;;;;;;;;25.50;23.50;;;;;4.91;85.47;102406.53;4973698;28;45351;-82
2023/12/19 00:14:43;;;;;;;;;30.50;28.25;;;;;4.79;85.96;102400.44;4974098;28;45508;-83
2023/12/19 00:17:08;;;;;;;;;29.25;26.50;;;;;4.81;86.22;102409.19;4973588;28;45826;-82
2023/12/19 00:19:33;;;;;;;;;32.00;28.00;;;;;4.84;86.78;102396.91;4973258;28;68598;-85
2023/12/19 00:21:59;;;;;;;;;33.75;28.75;;;;;4.81;85.78;102369.66;4973692;28;45368;-84
2023/12/19 00:24:24;;;;;;;;;35.50;29.00;;;;;4.79;86.27;102371.44;4978182;28;56022;-83
2023/12/19 00:26:49;;;;;;;;;42.50;33.75;;;;;4.85;86.74;102379.34;4996342;28;45222;-83
2023/12/19 00:29:15;;;;;;;;;29.50;23.00;;;;;4.86;87.02;102378.44;4995762;28;57757;-84
2023/12/19 00:31:40;;;;;;;;;30.00;26.00;;;;;4.86;86.47;102381.97;4996234;28;45353;-83
2023/12/19 00:34:05;;;;;;;;;31.50;25.75;;;;;4.77;86.13;102363.53;4994896;28;49883;-83
2023/12/19 00:36:30;;;;;;;;;34.50;25.25;;;;;4.88;86.60;102380.19;4977173;28;45494;-82
2023/12/19 00:38:56;;;;;;;;;29.75;25.00;;;;;4.74;86.90;102356.53;4976661;28;45447;-82
2023/12/19 00:41:21;;;;;;;;;26.75;24.75;;;;;4.77;86.34;102360.91;4976550;28;45416;-80
2023/12/19 00:43:47;;;;;;;;;32.50;25.50;;;;;4.77;86.60;102350.34;4977379;28;45496;-83
2023/12/19 00:46:12;;;;;;;;;26.75;24.00;;;;;4.77;86.89;102355.63;4977182;28;45320;-81
2023/12/19 00:48:38;;;;;;;;;34.00;23.25;;;;;4.77;86.78;102349.47;4976210;28;46164;-80
2023/12/19 00:51:08;;;;;;;;;28.25;24.00;;;;;4.82;86.61;102356.50;4975864;28;56801;-82
2023/12/19 00:53:34;;;;;;;;;39.00;28.50;;;;;4.83;86.62;102350.34;4976496;28;45414;-85
2023/12/19 00:55:59;;;;;;;;;31.50;26.75;;;;;4.91;85.94;102350.28;4976923;28;45554;-83
2023/12/19 00:58:24;;;;;;;;;33.00;29.75;;;;;5.11;85.87;102361.63;4976104;28;65306;-81
2023/12/19 01:00:50;;;;;;;;;39.75;31.25;;;;;5.08;85.41;102339.66;4976450;28;46108;-83
2023/12/19 01:03:15;;;;;;;;;30.00;25.25;;;;;5.27;84.71;102365.06;4976828;28;45424;-84
2023/12/19 01:05:40;;;;;;;;;22.25;18.75;;;;;5.31;84.74;102356.22;4988353;28;55899;-82
2023/12/19 01:08:05;;;;;;;;;31.50;22.75;;;;;5.25;83.91;102359.78;4995776;28;45507;-85
2023/12/19 01:10:31;;;;;;;;;32.50;24.75;;;;;5.38;84.36;102370.28;4995060;28;45425;-82
2023/12/19 01:12:56;;;;;;;;;17.75;15.00;;;;;5.35;83.86;102368.53;4996053;27;45320;-81
2023/12/19 01:15:22;;;;;;;;;32.75;26.00;;;;;5.33;83.59;102365.88;4999979;27;45580;-82
2023/12/19 01:17:47;;;;;;;;;27.00;25.50;;;;;5.36;82.95;102372.94;4975944;28;46427;-82
2023/12/19 01:20:12;;;;;;;;;25.00;23.75;;;;;5.51;82.99;102393.94;4976150;28;45418;-81
2023/12/19 01:22:38;;;;;;;;;27.00;22.00;;;;;5.55;82.73;102389.50;4975753;28;45375;-81
2023/12/19 01:25:03;;;;;;;;;31.75;29.50;;;;;5.48;82.90;102385.16;4976658;28;45690;-81
2023/12/19 01:27:29;;;;;;;;;35.75;27.25;;;;;5.39;83.66;102374.66;4976219;28;45414;-81
2023/12/19 01:29:54;;;;;;;;;21.50;18.50;;;;;5.43;83.29;102366.72;4976018;28;45337;-82
2023/12/19 01:32:19;;;;;;;;;28.25;26.00;;;;;5.49;83.74;102376.38;4975768;28;45728;-81
2023/12/19 01:34:46;;;;;;;;;28.25;23.25;;;;;5.56;83.23;102378.06;4976273;28;45593;-81
2023/12/19 01:37:12;;;;;;;;;31.25;25.00;;;;;5.53;83.19;102368.41;4985647;28;45967;-81
2023/12/19 01:39:37;;;;;;;;;30.75;26.75;;;;;5.52;82.97;102363.16;4975868;28;45282;-81
2023/12/19 01:42:03;;;;;;;;;34.25;26.25;;;;;5.38;82.88;102335.97;4975141;28;45334;-80
2023/12/19 01:44:28;;;;;;;;;33.75;29.50;;;;;5.50;82.78;102344.69;4976733;28;45456;-82
2023/12/19 01:46:53;;;;;;;;;21.75;19.50;;;;;5.54;83.62;102351.69;4975423;28;52910;-81
2023/12/19 01:49:19;;;;;;;;;26.00;20.50;;;;;5.51;83.05;102325.31;4975688;28;45448;-81
2023/12/19 01:51:45;;;;;;;;;29.25;28.00;;;;;5.52;83.29;102331.47;4976033;28;45267;-82
2023/12/19 01:54:12;;;;;;;;;29.75;23.50;;;;;5.47;83.61;102349.09;4977126;28;45358;-81
2023/12/19 01:56:38;;;;;;;;;35.25;22.75;;;;;5.46;83.41;102323.59;4992442;28;47370;-80
2023/12/19 01:59:05;;;;;;;;;29.75;21.25;;;;;5.42;82.83;102335.94;4996762;28;45443;-83
2023/12/19 02:01:33;;;;;;;;;22.75;21.25;;;;;5.52;82.98;102350.81;4998194;27;45337;-83
2023/12/19 02:03:59;;;;;;;;;29.25;24.25;;;;;5.62;82.93;102352.53;4989874;28;45559;-84
2023/12/19 02:06:25;;;;;;;;;23.25;19.75;;;;;5.64;83.36;102347.22;4976827;28;46204;-84
2023/12/19 02:08:51;;;;;;;;;33.50;22.75;;;;;5.70;82.83;102357.72;4976796;28;45431;-83
2023/12/19 02:11:16;;;;;;;;;24.00;23.50;;;;;5.64;82.24;102320.81;4976642;28;45373;-82
2023/12/19 02:13:43;;;;;;;;;20.25;19.00;;;;;5.67;82.22;102339.28;4976170;28;45548;-83
2023/12/19 02:16:08;;;;;;;;;33.75;24.00;;;;;5.74;82.27;102351.56;4975550;28;46982;-82
2023/12/19 02:18:34;;;;;;;;;27.75;22.75;;;;;5.88;82.10;102367.28;4975871;28;45422;-84
2023/12/19 02:20:59;;;;;;;;;21.00;21.00;;;;;5.98;81.63;102366.31;4974297;28;45399;-82
2023/12/19 02:23:24;;;;;;;;;27.25;23.50;;;;;6.09;81.71;102374.16;4975692;28;45279;-84
2023/12/19 02:25:51;;;;;;;;;22.50;19.25;;;;;6.02;81.30;102343.41;4975817;27;46051;-83
2023/12/19 02:28:17;;;;;;;;;23.00;20.25;;;;;6.13;81.64;102353.00;4975428;28;45283;-84
2023/12/19 02:30:43;;;;;;;;;22.75;19.75;;;;;6.17;81.38;102351.19;4975348;28;45225;-84
2023/12/19 02:33:08;;;;;;;;;25.75;22.00;;;;;6.23;80.29;102361.69;4975699;28;45255;-82
2023/12/19 02:35:33;;;;;;;;;22.00;16.50;;;;;6.22;80.42;102333.50;4975766;28;45440;-80
2023/12/19 02:37:59;;;;;;;;;25.50;21.25;;;;;6.39;80.68;102344.81;4975174;28;45363;-82
2023/12/19 02:40:24;;;;;;;;;19.75;17.00;;;;;6.43;80.12;102341.22;4974479;28;61532;-83
2023/12/19 02:42:49;;;;;;;;;30.00;22.25;;;;;6.41;80.47;102332.44;4979141;28;45547;-82
2023/12/19 02:45:16;;;;;;;;;20.25;18.00;;;;;6.42;80.19;102343.88;4979089;28;45342;-81
2023/12/19 02:47:41;;;;;;;;;20.25;18.75;;;;;6.41;79.79;102331.56;4974069;28;45428;-82
2023/12/19 02:50:07;;;;;;;;;20.75;17.50;;;;;6.34;79.86;102325.47;4975234;28;45372;-81
2023/12/19 02:52:32;;;;;;;;;24.00;20.00;;;;;6.36;79.96;102313.09;4975489;28;45492;-82
2023/12/19 02:54:58;;;;;;;;;20.75;19.25;;;;;6.48;79.71;102320.03;4974844;28;45997;-80
2023/12/19 02:57:23;;;;;;;;;23.00;21.75;;;;;6.42;79.85;102296.31;4974897;28;46039;-82
2023/12/19 02:59:48;;;;;;;;;14.50;13.50;;;;;6.46;79.22;102309.47;4974402;28;54401;-81
2023/12/19 03:02:14;;;;;;;;;20.00;16.50;;;;;6.40;79.38;102311.31;4974853;28;45275;-81
2023/12/19 03:04:39;;;;;;;;;22.75;17.00;;;;;6.24;80.05;102280.66;4973730;28;67083;-82
2023/12/19 03:07:05;;;;;;;;;20.25;20.25;;;;;6.45;80.33;102318.28;4975263;28;45429;-81
2023/12/19 03:09:30;;;;;;;;;24.50;24.00;;;;;6.50;79.17;102295.31;4974387;28;45439;-81
2023/12/19 03:12:03;;;;;;;;;23.75;22.75;;;;;6.50;79.27;102297.97;4975308;28;45678;-81
2023/12/19 03:14:30;;;;;;;;;22.00;19.50;;;;;6.55;79.50;102290.00;4974431;28;45428;-81
2023/12/19 03:16:55;;;;;;;;;28.50;22.75;;;;;6.67;79.20;102318.06;4989372;28;45361;-81
2023/12/19 03:19:20;;;;;;;;;24.25;19.00;;;;;6.69;78.58;102316.25;4994231;28;45296;-81
2023/12/19 03:21:46;;;;;;;;;22.75;18.00;;;;;6.72;78.38;102289.78;4994414;27;45550;-81
2023/12/19 03:24:11;;;;;;;;;24.00;21.75;;;;;6.63;78.74;102271.38;4978315;28;46025;-81
2023/12/19 03:26:36;;;;;;;;;19.25;19.25;;;;;6.65;79.29;102272.25;4974850;28;55177;-81
2023/12/19 03:29:02;;;;;;;;;20.00;17.25;;;;;6.60;79.75;102289.94;4974701;28;45271;-80
2023/12/19 03:31:27;;;;;;;;;14.25;13.75;;;;;6.61;79.21;102275.81;4974100;28;55938;-80
2023/12/19 03:33:52;;;;;;;;;17.50;17.50;;;;;6.50;79.10;102244.22;4974201;28;45365;-82
2023/12/19 03:36:18;;;;;;;;;21.00;20.50;;;;;6.81;78.85;102284.38;4982673;28;50439;-81
2023/12/19 03:38:43;;;;;;;;;22.00;18.75;;;;;6.90;78.98;102271.03;4994180;27;45165;-81
2023/12/19 03:41:09;;;;;;;;;22.50;19.00;;;;;6.87;78.71;102271.06;4994588;28;45567;-81
2023/12/19 03:43:37;;;;;;;;;18.25;18.25;;;;;6.86;78.76;102269.31;4980896;28;45461;-83
2023/12/19 03:46:04;;;;;;;;;19.25;18.00;;;;;6.87;78.71;102278.09;4975487;28;45495;-82
2023/12/19 03:48:30;;;;;;;;;20.00;19.00;;;;;6.92;78.28;102282.47;4974050;28;45438;-83
2023/12/19 03:50:56;;;;;;;;;25.00;19.50;;;;;6.95;78.51;102270.97;4974527;28;45290;-81
2023/12/19 03:53:22;;;;;;;;;27.00;21.00;;;;;6.97;78.40;102271.81;4974177;28;46211;-81
2023/12/19 03:55:47;;;;;;;;;23.50;18.75;;;;;7.01;77.98;102269.06;4974216;28;45516;-82
2023/12/19 03:58:13;;;;;;;;;25.00;20.00;;;;;7.05;77.85;102264.66;4974221;28;45393;-82
2023/12/19 04:00:38;;;;;;;;;27.75;20.00;;;;;7.03;78.23;102267.31;4973633;28;54052;-80
2023/12/19 04:03:04;;;;;;;;;28.50;24.50;;;;;6.90;78.19;102247.22;4973030;28;65909;-81
2023/12/19 04:05:29;;;;;;;;;22.75;19.75;;;;;6.98;77.75;102260.31;4974215;28;45331;-81
2023/12/19 04:07:54;;;;;;;;;21.75;18.25;;;;;7.01;78.38;102255.84;4974031;28;45247;-81
2023/12/19 04:10:20;;;;;;;;;22.75;22.75;;;;;7.01;78.43;102245.28;4974270;28;45494;-82
2023/12/19 04:12:45;;;;;;;;;21.25;20.00;;;;;6.88;78.20;102217.25;4973184;28;63052;-82
2023/12/19 04:15:10;;;;;;;;;21.75;19.50;;;;;6.95;77.89;102218.06;4974244;28;52196;-82
2023/12/19 04:17:36;;;;;;;;;22.50;17.00;;;;;6.90;78.38;102204.00;4973962;28;45388;-82
2023/12/19 04:20:03;;;;;;;;;19.25;16.75;;;;;6.96;77.94;102209.22;4974087;28;45354;-83
2023/12/19 04:22:30;;;;;;;;;24.75;20.75;;;;;6.78;78.24;102176.88;4972386;28;47324;-81
2023/12/19 04:24:55;;;;;;;;;22.50;20.00;;;;;6.81;78.86;102178.59;4973415;27;45627;-83
2023/12/19 04:27:20;;;;;;;;;22.75;18.00;;;;;6.72;78.89;102165.50;4973954;28;50797;-84
2023/12/19 04:29:46;;;;;;;;;26.25;18.50;;;;;6.52;79.26;102151.72;4973845;28;45585;-81
2023/12/19 04:32:14;;;;;;;;;21.00;19.25;;;;;6.79;78.75;102206.84;4972438;28;47880;-82
2023/12/19 04:34:39;;;;;;;;;25.00;25.00;;;;;6.85;78.96;102192.63;4973455;28;65576;-80
2023/12/19 04:37:05;;;;;;;;;20.75;16.75;;;;;6.73;78.76;102170.75;4973604;28;45312;-81
2023/12/19 04:39:30;;;;;;;;;21.25;19.25;;;;;6.74;79.20;102163.72;4973763;28;45309;-82
2023/12/19 04:41:55;;;;;;;;;22.00;20.25;;;;;6.84;78.74;102183.84;4972792;28;62657;-81
2023/12/19 04:44:22;;;;;;;;;20.00;17.50;;;;;6.85;78.86;102166.19;4988719;28;45504;-83
2023/12/19 04:46:47;;;;;;;;;31.50;23.25;;;;;6.95;78.16;102178.38;4973715;28;45318;-81
2023/12/19 04:49:12;;;;;;;;;22.50;20.25;;;;;7.04;78.64;102192.34;4973927;28;45441;-83
2023/12/19 04:51:38;;;;;;;;;29.00;20.50;;;;;7.09;78.44;102195.78;4973191;28;47794;-83
2023/12/19 04:54:05;;;;;;;;;20.75;16.25;;;;;7.05;78.01;102182.63;4972729;28;60151;-83
2023/12/19 04:56:30;;;;;;;;;20.50;15.00;;;;;6.82;78.19;102158.31;4973673;28;45461;-82
2023/12/19 04:58:56;;;;;;;;;20.25;18.25;;;;;6.94;78.61;102189.84;4973385;28;45204;-84
2023/12/19 05:01:21;;;;;;;;;14.25;10.75;;;;;6.87;78.89;102178.50;4973004;28;45959;-84
2023/12/19 05:03:46;;;;;;;;;24.00;20.50;;;;;6.82;78.78;102182.97;4972932;28;52156;-83
2023/12/19 05:06:16;;;;;;;;;28.00;24.00;;;;;6.81;78.97;102168.03;4977196;28;45156;-84
2023/12/19 05:08:42;;;;;;;;;27.00;21.25;;;;;6.76;79.21;102162.78;4973675;28;45487;-84
2023/12/19 05:11:08;;;;;;;;;28.75;23.00;;;;;6.78;79.29;102158.38;4973910;28;46045;-82
2023/12/19 05:13:33;;;;;;;;;27.25;22.75;;;;;6.93;79.58;102164.31;4977299;28;55579;-83
2023/12/19 05:16:08;;;;;;;;;24.00;20.00;;;;;7.00;78.99;102179.16;4977542;28;45681;-84
2023/12/19 05:18:33;;;;;;;;;22.00;20.50;;;;;7.04;79.08;102165.88;4976565;28;45488;-84
2023/12/19 05:20:58;;;;;;;;;23.75;23.00;;;;;7.06;78.99;102148.22;4975613;28;59756;-82
2023/12/19 05:23:24;;;;;;;;;23.25;19.25;;;;;7.16;78.56;102158.63;4976159;28;45518;-83
2023/12/19 05:25:49;;;;;;;;;25.25;22.00;;;;;7.04;78.80;102150.03;4983879;28;45463;-84
2023/12/19 05:28:14;;;;;;;;;19.00;19.00;;;;;6.97;78.84;102140.41;4977638;28;45543;-81
2023/12/19 05:30:42;;;;;;;;;16.50;16.00;;;;;7.11;78.67;102158.72;4975755;28;46040;-82
2023/12/19 05:33:07;;;;;;;;;18.75;18.75;;;;;7.13;78.59;102148.09;4975868;28;45336;-81
2023/12/19 05:35:32;;;;;;;;;19.75;17.75;;;;;7.01;78.98;102133.31;4979038;28;45523;-81
2023/12/19 05:37:58;;;;;;;;;23.50;21.50;;;;;7.08;79.08;102138.47;4975768;28;45327;-82
2023/12/19 05:40:23;;;;;;;;;22.75;20.00;;;;;7.01;78.99;102122.72;4975636;28;45819;-82
2023/12/19 05:42:48;;;;;;;;;20.25;19.25;;;;;7.10;79.10;102134.03;4976650;28;45314;-82
2023/12/19 05:45:14;;;;;;;;;19.50;18.75;;;;;7.22;78.60;102161.19;4976871;28;45211;-82
2023/12/19 05:47:39;;;;;;;;;23.50;17.00;;;;;7.31;78.98;102159.25;4975939;28;45668;-81
2023/12/19 05:50:05;;;;;;;;;24.25;19.75;;;;;7.39;78.20;102167.03;4974884;27;47469;-82
2023/12/19 05:52:30;;;;;;;;;20.00;17.00;;;;;7.47;78.41;102172.22;4975342;28;45250;-81
2023/12/19 05:54:55;;;;;;;;;16.75;16.25;;;;;7.59;77.46;102169.34;4975610;28;52046;-80
2023/12/19 05:57:21;;;;;;;;;19.50;17.00;;;;;7.67;77.47;102175.34;4975825;28;45461;-81
2023/12/19 05:59:46;;;;;;;;;16.00;14.00;;;;;7.68;76.63;102154.16;4975089;28;63104;-81
2023/12/19 06:02:11;;;;;;;;;20.50;19.00;;;;;7.76;77.07;102151.34;4990353;28;45432;-82
2023/12/19 06:04:37;;;;;;;;;21.00;16.00;;;;;7.78;76.75;102161.91;4977126;28;45472;-83
2023/12/19 06:07:03;;;;;;;;;21.25;16.75;;;;;7.77;76.64;102147.78;4976243;28;45334;-83
2023/12/19 06:09:30;;;;;;;;;18.00;16.75;;;;;7.59;76.56;102113.75;4977555;28;45491;-83
2023/12/19 06:11:55;;;;;;;;;20.50;15.25;;;;;7.75;76.52;102140.78;4995460;28;45374;-84
2023/12/19 06:14:21;;;;;;;;;17.75;17.75;;;;;7.72;76.68;102135.56;4994363;28;45484;-82
2023/12/19 06:16:46;;;;;;;;;19.50;16.25;;;;;7.78;76.87;102143.38;4996165;27;45616;-82
2023/12/19 06:19:11;;;;;;;;;24.00;18.75;;;;;7.66;76.50;102133.88;4995007;27;45280;-81
2023/12/19 06:21:37;;;;;;;;;21.75;21.00;;;;;7.65;76.80;102143.59;4975920;27;45177;-83
2023/12/19 06:24:03;;;;;;;;;21.50;17.50;;;;;7.69;77.15;102158.56;4975085;28;60201;-83
2023/12/19 06:26:28;;;;;;;;;20.25;16.25;;;;;7.64;77.14;102157.75;4975838;28;45492;-82
2023/12/19 06:28:53;;;;;;;;;26.50;18.75;;;;;7.67;77.26;102162.09;4984598;28;46904;-81
2023/12/19 06:31:19;;;;;;;;;21.00;19.00;;;;;7.69;77.11;102157.69;4978589;28;58363;-85
2023/12/19 06:33:45;;;;;;;;;22.50;17.00;;;;;7.57;77.14;102137.59;4983769;28;45274;-83
2023/12/19 06:36:26;;;;;;;;;26.00;21.00;;;;;7.62;77.04;102143.66;4992514;28;45410;-81
2023/12/19 06:38:51;;;;;;;;;18.25;17.25;;;;;7.67;77.37;102149.75;4990973;27;45235;-83
2023/12/19 06:41:17;;;;;;;;;24.75;18.75;;;;;7.72;77.05;102157.63;4989764;28;56820;-85
2023/12/19 06:43:43;;;;;;;;;22.75;18.75;;;;;7.75;76.94;102154.03;4983934;28;45213;-82
2023/12/19 06:46:17;;;;;;;;;21.00;17.00;;;;;7.69;76.87;102145.31;5045722;27;45591;-82
2023/12/19 06:48:43;;;;;;;;;16.00;15.00;;;;;7.68;76.75;102140.94;5022162;27;45528;-82
2023/12/19 06:51:08;;;;;;;;;23.25;15.75;;;;;7.65;77.16;102142.72;4998269;27;45212;-82
2023/12/19 06:53:33;;;;;;;;;22.00;20.75;;;;;7.59;77.13;102133.16;4994820;28;45236;-82
2023/12/19 06:55:59;;;;;;;;;30.50;21.00;;;;;7.50;76.88;102116.56;5011697;28;45947;-83
2023/12/19 06:58:24;;;;;;;;;21.75;19.50;;;;;7.51;76.91;102129.75;4992142;28;61331;-84
2023/12/19 07:00:49;;;;;;;;;27.00;20.00;;;;;7.56;76.96;102138.50;5006274;28;45357;-84
2023/12/19 07:03:15;;;;;;;;;22.00;19.25;;;;;7.57;76.92;102136.72;4987624;28;54186;-83
2023/12/19 07:05:41;;;;;;;;;17.25;16.00;;;;;7.54;76.42;102118.22;4975875;28;45224;-83
2023/12/19 07:08:06;;;;;;;;;20.75;17.25;;;;;7.47;77.00;102117.50;4974149;28;46219;-85
2023/12/19 07:10:31;;;;;;;;;21.75;17.75;;;;;7.37;77.10;102100.91;4975214;28;67384;-85
2023/12/19 07:12:58;;;;;;;;;20.25;17.00;;;;;7.35;77.05;102099.19;4977509;28;45531;-83
2023/12/19 07:15:23;;;;;;;;;18.00;16.50;;;;;7.29;77.38;102104.59;4980323;28;45550;-85
2023/12/19 07:17:49;;;;;;;;;20.25;15.50;;;;;7.29;77.46;102104.59;5015052;28;45416;-85
2023/12/19 07:20:15;;;;;;;;;17.50;16.00;;;;;7.25;77.94;102101.13;5009291;27;45527;-88
2023/12/19 07:22:41;;;;;;;;;18.75;16.25;;;;;7.18;77.80;102082.75;5009447;28;45637;-84
2023/12/19 07:25:07;;;;;;;;;16.50;13.25;;;;;7.15;77.53;102070.44;4996572;28;45577;-86
2023/12/19 07:27:34;;;;;;;;;27.25;18.75;;;;;7.01;77.87;102054.81;4997297;28;45363;-85
2023/12/19 07:29:59;;;;;;;;;17.00;16.50;;;;;7.10;78.08;102081.13;4997055;27;45277;-83
2023/12/19 07:32:25;;;;;;;;;20.50;19.25;;;;;7.15;77.72;102080.16;4995942;27;45341;-83
2023/12/19 07:34:51;;;;;;;;;20.25;20.25;;;;;7.15;77.97;102085.44;5000277;27;45499;-81
2023/12/19 07:37:16;;;;;;;;;26.25;18.50;;;;;7.15;77.98;102082.78;4998022;27;46077;-84
2023/12/19 07:39:41;;;;;;;;;23.25;17.00;;;;;7.16;77.72;102085.44;4997552;27;51581;-85
2023/12/19 07:42:07;;;;;;;;;23.00;19.00;;;;;7.23;77.94;102080.91;4997033;28;45316;-84
2023/12/19 07:44:33;;;;;;;;;20.00;18.00;;;;;7.23;78.06;102083.53;4997647;27;45577;-86
2023/12/19 07:46:58;;;;;;;;;20.50;18.75;;;;;7.24;77.69;102101.16;4994861;28;45449;-82
2023/12/19 07:49:24;;;;;;;;;21.50;15.75;;;;;7.22;77.86;102080.03;4997194;28;45499;-87
2023/12/19 07:51:50;;;;;;;;;18.25;18.00;;;;;7.29;78.26;102083.41;4998579;27;45369;-87
2023/12/19 07:54:17;;;;;;;;;25.75;18.25;;;;;7.32;77.34;102070.16;4997521;28;45360;-90
2023/12/19 07:56:42;;;;;;;;;20.25;17.75;;;;;7.27;77.56;102059.63;4996923;28;46464;-86
2023/12/19 07:59:11;;;;;;;;;20.50;20.50;;;;;7.23;77.26;102043.84;4997789;27;45254;-87
2023/12/19 08:01:36;;;;;;;;;23.00;18.75;;;;;7.35;77.54;102056.84;4995604;28;45306;-87
2023/12/19 08:04:02;;;;;;;;;18.50;17.25;;;;;7.42;77.64;102060.22;4995938;27;45563;-90
2023/12/19 08:06:27;;;;;;;;;16.00;16.00;;;;;7.42;76.79;102060.22;4999807;28;45317;-85
2023/12/19 08:08:52;;;;;;;;;20.25;15.00;;;;;7.47;77.56;102066.31;4997669;28;45685;-89
2023/12/19 08:11:18;;;;;;;;;21.25;19.75;;;;;7.17;77.33;101996.34;4998336;28;45369;-88
2023/12/19 08:13:44;;;;;;;;;20.50;17.50;;;;;7.52;76.66;102046.78;4995871;27;45388;-87
2023/12/19 08:16:10;;;;;;;;;18.00;16.75;;;;;7.47;77.46;102053.97;4999188;27;45957;-83
2023/12/19 08:18:36;;;;;;;;;25.00;19.75;;;;;7.53;77.42;102059.13;5004007;28;45326;-84
2023/12/19 08:21:05;;;;;;;;;21.25;20.75;;;;;7.52;76.94;102040.63;5001228;27;45278;-88
2023/12/19 08:23:30;;;;;;;;;21.00;15.75;;;;;7.68;76.52;102047.34;5002329;27;44994;-88
2023/12/19 08:25:55;;;;;;;;;24.75;19.50;;;;;7.77;76.12;102059.53;4999882;28;45310;-88
2023/12/19 08:28:21;;;;;;;;;21.00;19.50;;;;;7.81;76.24;102071.78;4997046;28;45161;-90
2023/12/19 08:30:47;;;;;;;;;20.75;16.00;;;;;7.86;76.36;102077.88;4998766;28;45379;-90
2023/12/19 08:33:13;;;;;;;;;22.50;18.25;;;;;7.82;76.08;102061.19;4996463;27;45369;-91
2023/12/19 08:35:39;;;;;;;;;22.50;20.75;;;;;7.89;75.51;102062.78;4996295;28;46039;-87
2023/12/19 08:38:05;;;;;;;;;18.75;17.00;;;;;7.75;75.61;102042.81;4995096;28;45489;-84
2023/12/19 08:40:31;;;;;;;;;22.75;20.75;;;;;7.82;75.97;102060.31;4995747;28;45267;-86
2023/12/19 08:42:56;;;;;;;;;21.75;21.25;;;;;7.83;76.07;102055.00;5014668;27;45538;-85
2023/12/19 08:45:26;;;;;;;;;25.75;20.50;;;;;7.72;75.93;102049.03;4998343;28;46175;-83
2023/12/19 08:47:53;;;;;;;;;20.50;17.75;;;;;7.67;76.52;102050.91;4998830;28;45436;-85
2023/12/19 08:50:18;;;;;;;;;26.50;20.25;;;;;7.57;76.73;102034.34;4997717;28;45366;-86
2023/12/19 08:52:44;;;;;;;;;16.00;14.00;;;;;7.77;76.58;102049.81;4998141;28;45428;-85
2023/12/19 08:55:11;;;;;;;;;30.25;20.50;;;;;7.80;77.14;102051.50;4996781;28;47118;-86
2023/12/19 08:57:44;;;;;;;;;21.25;20.25;;;;;7.80;76.71;102052.38;4997466;27;45463;-87
2023/12/19 09:00:18;;;;;;;;;20.00;16.00;;;;;7.89;76.52;102054.84;4997234;28;45361;-85
2023/12/19 09:02:44;;;;;;;;;20.75;18.25;;;;;7.92;76.44;102054.78;4997276;28;45489;-86
2023/12/19 09:05:14;;;;;;;;;26.00;19.25;;;;;7.84;76.01;102006.41;4996042;28;46164;-87
2023/12/19 09:07:40;;;;;;;;;20.00;13.50;;;;;7.96;75.87;102023.81;4996740;27;45237;-83
2023/12/19 09:10:06;;;;;;;;;19.50;17.75;;;;;7.95;76.01;102009.69;4997131;28;45416;-86
2023/12/19 09:12:33;;;;;;;;;17.00;13.00;;;;;7.95;76.02;102011.47;4997018;27;45396;-85
2023/12/19 09:14:58;;;;;;;;;18.75;17.00;;;;;7.90;76.21;102005.38;4997731;28;45453;-85
2023/12/19 09:17:24;;;;;;;;;20.50;19.75;;;;;8.01;75.96;102003.38;4998616;28;45325;-86
2023/12/19 09:19:49;;;;;;;;;22.25;19.25;;;;;7.99;75.45;102002.53;4997631;28;45488;-86
2023/12/19 09:22:14;;;;;;;;;17.25;16.00;;;;;7.77;75.86;101966.84;4997221;28;54113;-84
2023/12/19 09:24:40;;;;;;;;;18.75;14.50;;;;;7.88;76.05;101975.41;4998621;28;56924;-85
2023/12/19 09:27:05;;;;;;;;;18.75;17.50;;;;;8.00;75.94;102012.22;4998798;27;45350;-86
2023/12/19 09:29:32;;;;;;;;;19.75;17.75;;;;;7.95;75.49;102000.88;4997518;28;45302;-85
2023/12/19 09:32:00;;;;;;;;;17.75;16.75;;;;;8.09;76.07;102014.69;4998567;28;45437;-84
2023/12/19 09:34:26;;;;;;;;;19.25;18.25;;;;;8.12;75.60;102025.19;4998023;27;45951;-83
2023/12/19 09:36:51;;;;;;;;;17.50;16.25;;;;;8.14;75.34;102022.50;4998678;27;45313;-86
2023/12/19 09:39:16;;;;;;;;;19.00;15.50;;;;;8.22;75.46;102016.13;5000626;28;45252;-83
2023/12/19 09:41:43;;;;;;;;;18.50;13.00;;;;;8.35;75.30;102014.09;5001820;28;45322;-89
2023/12/19 09:44:09;;;;;;;;;20.00;18.50;;;;;8.30;74.70;102005.31;5014932;27;46989;-89
2023/12/19 09:46:36;;;;;;;;;18.00;16.50;;;;;8.35;74.45;102003.50;5004085;28;45385;-87
2023/12/19 09:49:02;;;;;;;;;16.75;14.25;;;;;8.22;74.49;101991.41;5003292;27;44758;-86
2023/12/19 09:51:30;;;;;;;;;15.25;14.75;;;;;8.35;74.97;102010.56;5002663;28;45561;-87
2023/12/19 09:53:56;;;;;;;;;22.50;20.75;;;;;8.20;74.75;101994.09;5003520;27;45363;-89
2023/12/19 09:56:25;;;;;;;;;16.25;13.00;;;;;8.34;74.87;102011.44;5000575;28;45283;-92
2023/12/19 09:58:51;;;;;;;;;23.00;18.50;;;;;8.45;74.95;102018.22;5002096;27;45412;-84
2023/12/19 10:01:20;;;;;;;;;19.00;16.25;;;;;8.39;74.12;102004.28;5000826;27;45402;-86
2023/12/19 10:03:45;;;;;;;;;17.00;16.25;;;;;8.42;74.64;101994.47;4999277;28;45379;-88
2023/12/19 10:06:11;;;;;;;;;18.50;15.25;;;;;8.35;74.62;101997.31;4998590;28;45226;-85
2023/12/19 10:08:43;;;;;;;;;21.75;17.00;;;;;8.28;74.31;101976.22;5000317;27;45317;-85
2023/12/19 10:11:16;;;;;;;;;19.75;17.25;;;;;8.31;74.66;101988.50;5003430;28;45341;-84
2023/12/19 10:13:41;;;;;;;;;17.00;13.00;;;;;8.28;74.67;101996.53;5002997;28;45404;-83
2023/12/19 10:16:08;;;;;;;;;12.75;12.75;;;;;8.25;74.70;101981.59;5002086;28;49766;-82
2023/12/19 10:18:35;;;;;;;;;16.00;15.75;;;;;8.39;75.14;101993.66;4999817;28;45226;-84
2023/12/19 10:21:09;;;;;;;;;15.50;15.00;;;;;8.46;75.02;101971.38;4999977;28;45552;-84
2023/12/19 10:23:36;;;;;;;;;17.75;13.50;;;;;8.42;74.31;101967.06;4997876;27;46148;-88
2023/12/19 10:26:01;;;;;;;;;16.00;13.25;;;;;8.43;74.73;101958.22;4998436;28;45445;-82
2023/12/19 10:28:27;;;;;;;;;18.25;12.50;;;;;8.48;74.79;101951.03;4999317;27;45422;-87
2023/12/19 10:31:12;;;;;;;;;17.50;15.50;;;;;8.45;75.14;101941.34;4998772;28;45626;-84
2023/12/19 10:33:49;;;;;;;;;22.50;17.75;;;;;8.42;75.04;101924.66;4998223;28;45555;-86
2023/12/19 10:36:24;;;;;;;;;20.00;18.25;;;;;8.49;74.67;101924.47;4998959;28;45372;-86
2023/12/19 10:38:50;;;;;;;;;18.00;17.00;;;;;8.56;74.87;101935.78;4998533;27;45483;-87
2023/12/19 10:41:19;;;;;;;;;19.75;15.00;;;;;8.60;74.16;101924.19;4998268;28;45317;-88
2023/12/19 10:43:47;;;;;;;;;21.00;17.50;;;;;8.67;73.88;101925.75;4999050;28;46014;-84
2023/12/19 10:46:14;;;;;;;;;23.50;17.75;;;;;8.70;73.63;101930.97;5002982;27;45317;-85
2023/12/19 10:48:39;;;;;;;;;15.75;14.25;;;;;8.71;74.03;101938.00;5005104;27;45455;-88
2023/12/19 10:51:08;;;;;;;;;19.00;16.50;;;;;8.67;73.87;101940.81;5005065;28;44835;-83
2023/12/19 10:53:36;;;;;;;;;17.50;14.00;;;;;8.65;73.88;101924.94;5005087;27;47298;-83
2023/12/19 10:56:07;;;;;;;;;20.50;16.50;;;;;8.73;73.67;101914.13;5000563;27;45168;-85
2023/12/19 10:58:39;;;;;;;;;17.25;15.50;;;;;8.74;74.55;101911.44;4997247;28;45365;-88
2023/12/19 11:01:07;;;;;;;;;16.75;15.00;;;;;8.79;74.81;101914.81;4997519;28;45337;-87
2023/12/19 11:03:44;;;;;;;;;19.25;15.00;;;;;8.80;74.27;101905.94;4997363;28;45511;-84
2023/12/19 11:06:15;;;;;;;;;16.75;14.00;;;;;8.80;74.43;101890.03;4997485;28;45463;-84
2023/12/19 11:08:44;;;;;;;;;10.75;10.75;;;;;8.80;73.56;101882.06;4997336;28;45405;-87
2023/12/19 11:11:25;;;;;;;;;16.75;16.75;;;;;8.90;73.77;101895.09;4998463;28;45259;-82